Time;durP1;ratioP1;P1;durP2;ratioP2;P2;SDS_P1;SDS_P2;PMS_P1;PMS_P2;Temp;Humidity;BMP_temperature;BMP_pressure;BME280_temperature;BME280_humidity;BME280_pressure;Samples;Min_cycle;Max_cycle;Signal;HPM_P1;HPM_P2
2022/07/30 00:02:01;;;;;;;;;;;19.20;99.90;;;;;;5097568;28;20592;-69
2022/07/30 00:04:27;;;;;;;;;;;19.20;99.90;;;;;;5094021;28;20328;-69
2022/07/30 00:06:52;;;;;;;;;;;19.30;99.90;;;;;;5093881;28;20631;-69
2022/07/30 00:09:18;;;;;;;;;;;19.30;99.90;;;;;;5084267;28;20356;-68
2022/07/30 00:11:44;;;;;;;;;;;19.30;99.90;;;;;;5100775;28;20003;-68
2022/07/30 00:14:09;;;;;;;;;;;19.30;99.90;;;;;;5101766;28;20405;-69
2022/07/30 00:16:35;;;;;;;;;;;19.40;99.90;;;;;;5100203;28;19935;-69
2022/07/30 00:19:01;;;;;;;;;;;19.50;99.90;;;;;;5093857;28;19970;-69
2022/07/30 00:21:27;;;;;;;;;;;19.40;99.90;;;;;;5092926;28;19952;-69
2022/07/30 00:23:52;;;;;;;;;;;19.20;99.90;;;;;;5096979;28;19957;-69
2022/07/30 00:26:18;;;;;;;;;;;19.20;99.90;;;;;;5091723;28;19912;-69
2022/07/30 00:28:44;;;;;;;;;;;19.20;99.90;;;;;;5104302;28;19919;-68
2022/07/30 00:31:09;;;;;;;;;;;19.00;99.90;;;;;;5102440;28;19920;-69
2022/07/30 00:33:35;;;;;;;;;;;19.00;99.90;;;;;;5097188;28;19912;-69
2022/07/30 00:36:00;;;;;;;;;;;19.00;99.90;;;;;;5092885;28;20454;-69
2022/07/30 00:38:26;;;;;;;;;;;18.90;99.90;;;;;;5098868;28;19912;-69
2022/07/30 00:40:52;;;;;;;;;;;18.90;99.90;;;;;;5079187;28;19912;-69
2022/07/30 00:43:18;;;;;;;;;;;18.90;99.90;;;;;;5100753;28;19916;-69
2022/07/30 00:45:44;;;;;;;;;;;18.90;99.90;;;;;;5079782;28;20397;-69
2022/07/30 00:48:10;;;;;;;;;;;18.80;99.90;;;;;;5101060;28;19991;-69
2022/07/30 00:50:36;;;;;;;;;;;18.70;99.90;;;;;;5095441;28;20026;-68
2022/07/30 00:53:02;;;;;;;;;;;18.60;99.90;;;;;;5093903;28;19927;-69
2022/07/30 00:55:28;;;;;;;;;;;18.70;99.90;;;;;;5093627;28;20555;-69
2022/07/30 00:57:53;;;;;;;;;;;18.80;99.90;;;;;;5092129;28;19912;-69
2022/07/30 01:00:19;;;;;;;;;;;18.80;99.90;;;;;;5095521;28;19938;-69
2022/07/30 01:02:45;;;;;;;;;;;18.80;99.90;;;;;;5099382;28;20007;-69
2022/07/30 01:05:11;;;;;;;;;;;18.80;99.90;;;;;;5097421;28;19923;-69
2022/07/30 01:07:36;;;;;;;;;;;18.60;99.90;;;;;;5094876;28;19927;-69
2022/07/30 01:10:03;;;;;;;;;;;18.50;99.90;;;;;;5102354;28;19941;-69
2022/07/30 01:12:29;;;;;;;;;;;18.40;99.90;;;;;;5100591;28;20011;-69
2022/07/30 01:14:56;;;;;;;;;;;18.50;99.90;;;;;;5102544;28;19935;-68
2022/07/30 01:17:22;;;;;;;;;;;18.60;99.90;;;;;;5096186;28;19954;-69
2022/07/30 01:19:48;;;;;;;;;;;18.50;99.90;;;;;;5095305;28;19943;-69
2022/07/30 01:22:31;;;;;;;;;;;18.50;99.90;;;;;;5082151;28;19911;-69
2022/07/30 01:25:16;;;;;;;;;;;18.50;99.90;;;;;;5092337;28;19935;-70
2022/07/30 01:27:49;;;;;;;;;;;18.50;99.90;;;;;;5099500;28;19912;-68
2022/07/30 01:30:16;;;;;;;;;;;18.50;99.90;;;;;;5073030;28;20373;-68
2022/07/30 01:32:43;;;;;;;;;;;18.50;99.90;;;;;;5069227;28;20381;-68
2022/07/30 01:35:09;;;;;;;;;;;18.50;99.90;;;;;;5075928;28;20325;-69
2022/07/30 01:37:36;;;;;;;;;;;18.50;99.90;;;;;;5071359;28;20020;-69
2022/07/30 01:40:03;;;;;;;;;;;18.30;99.90;;;;;;5081976;28;19924;-69
2022/07/30 01:42:29;;;;;;;;;;;18.20;99.90;;;;;;5073727;28;19913;-69
2022/07/30 01:44:56;;;;;;;;;;;18.10;99.90;;;;;;5082518;28;19912;-69
2022/07/30 01:47:22;;;;;;;;;;;18.10;99.90;;;;;;5075190;28;19912;-69
2022/07/30 01:49:49;;;;;;;;;;;18.00;99.90;;;;;;5055595;28;19943;-69
2022/07/30 01:52:16;;;;;;;;;;;18.00;99.90;;;;;;5071575;28;19959;-69
2022/07/30 01:54:43;;;;;;;;;;;17.90;99.90;;;;;;5062324;28;19916;-69
2022/07/30 01:57:09;;;;;;;;;;;17.80;99.90;;;;;;5073805;28;19923;-69
2022/07/30 01:59:36;;;;;;;;;;;17.70;99.90;;;;;;5073878;28;20003;-69
2022/07/30 02:02:02;;;;;;;;;;;17.70;99.90;;;;;;5073809;28;19957;-69
2022/07/30 02:04:28;;;;;;;;;;;17.80;99.90;;;;;;5075107;28;19912;-70
2022/07/30 02:07:03;;;;;;;;;;;17.70;99.90;;;;;;5073237;28;20282;-68
2022/07/30 02:09:32;;;;;;;;;;;17.60;99.90;;;;;;5073438;28;20024;-70
2022/07/30 02:15:03;;;;;;;;;;;17.50;99.90;;;;;;5072928;28;19981;-69
2022/07/30 02:17:31;;;;;;;;;;;17.40;99.90;;;;;;5049248;28;20342;-69
2022/07/30 02:19:58;;;;;;;;;;;17.40;99.90;;;;;;5070568;28;19912;-69
2022/07/30 02:22:28;;;;;;;;;;;17.30;99.90;;;;;;5074078;28;19917;-69
2022/07/30 02:24:54;;;;;;;;;;;17.20;99.90;;;;;;5057217;28;20370;-69
2022/07/30 02:27:25;;;;;;;;;;;17.40;99.90;;;;;;5067950;28;20287;-69
2022/07/30 02:29:51;;;;;;;;;;;17.30;99.90;;;;;;5093897;28;19927;-69
2022/07/30 02:32:19;;;;;;;;;;;17.30;99.90;;;;;;5099116;28;20346;-70
2022/07/30 02:34:46;;;;;;;;;;;17.40;99.90;;;;;;5096051;28;20350;-69
2022/07/30 02:37:14;;;;;;;;;;;17.50;99.90;;;;;;5088106;28;19966;-69
2022/07/30 02:39:41;;;;;;;;;;;17.50;99.90;;;;;;5090597;28;19912;-69
2022/07/30 02:42:08;;;;;;;;;;;17.70;99.90;;;;;;5092666;28;19916;-68
2022/07/30 02:44:34;;;;;;;;;;;17.80;99.90;;;;;;5097902;28;20309;-69
2022/07/30 02:47:01;;;;;;;;;;;17.70;99.90;;;;;;5073317;28;20354;-69
2022/07/30 02:49:28;;;;;;;;;;;17.70;99.90;;;;;;5079360;28;19926;-69
2022/07/30 02:51:54;;;;;;;;;;;17.60;99.90;;;;;;5091355;28;19920;-70
2022/07/30 02:54:21;;;;;;;;;;;17.60;99.90;;;;;;5095960;28;19919;-69
2022/07/30 02:56:51;;;;;;;;;;;17.60;99.90;;;;;;5100287;28;19912;-69
2022/07/30 02:59:17;;;;;;;;;;;17.50;99.90;;;;;;5094618;28;19985;-68
2022/07/30 03:01:43;;;;;;;;;;;17.50;99.90;;;;;;5094350;28;19912;-69
2022/07/30 03:04:09;;;;;;;;;;;17.50;99.90;;;;;;5098969;28;19938;-69
2022/07/30 03:06:36;;;;;;;;;;;17.50;99.90;;;;;;5100497;28;19912;-69
2022/07/30 03:09:02;;;;;;;;;;;17.40;99.90;;;;;;5097227;28;20016;-69
2022/07/30 03:11:28;;;;;;;;;;;17.40;99.90;;;;;;5091921;28;19919;-69
2022/07/30 03:13:54;;;;;;;;;;;17.40;99.90;;;;;;5099313;28;19919;-69
2022/07/30 03:16:20;;;;;;;;;;;17.50;99.90;;;;;;5096118;28;19995;-68
2022/07/30 03:18:47;;;;;;;;;;;17.60;99.90;;;;;;5093830;28;20006;-69
2022/07/30 03:21:13;;;;;;;;;;;17.60;99.90;;;;;;5094584;28;20255;-68
2022/07/30 03:23:39;;;;;;;;;;;17.80;99.90;;;;;;5093408;28;19919;-69
2022/07/30 03:26:05;;;;;;;;;;;17.80;99.90;;;;;;5093816;28;20390;-69
2022/07/30 03:28:33;;;;;;;;;;;17.80;99.90;;;;;;5093208;28;19965;-68
2022/07/30 03:30:58;;;;;;;;;;;17.70;99.90;;;;;;5095023;28;19928;-68
2022/07/30 03:33:24;;;;;;;;;;;17.70;99.90;;;;;;5078958;28;20286;-69
2022/07/30 03:35:50;;;;;;;;;;;17.70;99.90;;;;;;5103021;28;19955;-69
2022/07/30 03:38:16;;;;;;;;;;;17.60;99.90;;;;;;5100263;28;20006;-70
2022/07/30 03:40:43;;;;;;;;;;;17.60;99.90;;;;;;5103937;28;20722;-69
2022/07/30 03:43:10;;;;;;;;;;;17.60;99.90;;;;;;5100197;28;19973;-68
2022/07/30 03:45:36;;;;;;;;;;;17.60;99.90;;;;;;5098208;28;19915;-69
2022/07/30 03:48:03;;;;;;;;;;;17.60;99.90;;;;;;5099503;28;21268;-69
2022/07/30 03:50:29;;;;;;;;;;;17.60;99.90;;;;;;5101975;28;19920;-70
2022/07/30 03:52:55;;;;;;;;;;;17.60;99.90;;;;;;5097035;28;20278;-68
2022/07/30 03:55:21;;;;;;;;;;;17.60;99.90;;;;;;5102495;28;20338;-70
2022/07/30 03:57:47;;;;;;;;;;;17.60;99.90;;;;;;5099153;28;19919;-69
2022/07/30 04:00:14;;;;;;;;;;;17.60;99.90;;;;;;5098842;28;19998;-69
2022/07/30 04:02:43;;;;;;;;;;;17.50;99.90;;;;;;5099175;28;19912;-69
2022/07/30 04:05:10;;;;;;;;;;;17.50;99.90;;;;;;5094001;28;19916;-68
2022/07/30 04:07:35;;;;;;;;;;;17.50;99.90;;;;;;5100323;28;19951;-69
2022/07/30 04:10:01;;;;;;;;;;;17.50;99.90;;;;;;5093760;28;19990;-68
2022/07/30 04:12:27;;;;;;;;;;;17.40;99.90;;;;;;5097238;28;20007;-69
2022/07/30 04:14:52;;;;;;;;;;;17.50;99.90;;;;;;5096759;28;20004;-69
2022/07/30 04:17:23;;;;;;;;;;;17.50;99.90;;;;;;5100474;28;19918;-69
2022/07/30 04:19:50;;;;;;;;;;;17.50;99.90;;;;;;5080981;28;20010;-70
2022/07/30 04:22:19;;;;;;;;;;;17.50;99.90;;;;;;5098593;28;20286;-69
2022/07/30 04:24:45;;;;;;;;;;;17.50;99.90;;;;;;5098793;28;20309;-69
2022/07/30 04:27:11;;;;;;;;;;;17.50;99.90;;;;;;5097007;28;19938;-69
2022/07/30 04:29:37;;;;;;;;;;;17.60;99.90;;;;;;5098741;28;19919;-69
2022/07/30 04:32:03;;;;;;;;;;;17.60;99.90;;;;;;5082341;28;20425;-69
2022/07/30 04:34:31;;;;;;;;;;;17.60;99.90;;;;;;5094084;28;19912;-68
2022/07/30 04:36:56;;;;;;;;;;;17.70;99.90;;;;;;5101573;28;19919;-69
2022/07/30 04:39:22;;;;;;;;;;;17.70;99.90;;;;;;5101393;28;19912;-68
2022/07/30 04:41:50;;;;;;;;;;;17.60;99.90;;;;;;5106957;28;20297;-68
2022/07/30 04:44:17;;;;;;;;;;;17.60;99.90;;;;;;5094073;28;20003;-69
2022/07/30 04:46:43;;;;;;;;;;;17.60;99.90;;;;;;5080138;28;19916;-69
2022/07/30 04:49:10;;;;;;;;;;;17.60;99.90;;;;;;5100829;28;19927;-69
2022/07/30 04:51:37;;;;;;;;;;;17.50;99.90;;;;;;5095379;28;19916;-68
2022/07/30 04:54:04;;;;;;;;;;;17.60;99.90;;;;;;5099321;28;19915;-70
2022/07/30 04:56:30;;;;;;;;;;;17.60;99.90;;;;;;5101398;28;19947;-69
2022/07/30 04:58:56;;;;;;;;;;;17.60;99.90;;;;;;5077666;28;19912;-69
2022/07/30 05:01:23;;;;;;;;;;;17.60;99.90;;;;;;5094615;28;19965;-70
2022/07/30 05:03:49;;;;;;;;;;;17.60;99.90;;;;;;5099390;28;20053;-69
2022/07/30 05:06:15;;;;;;;;;;;17.70;99.90;;;;;;5090606;28;19912;-69
2022/07/30 05:08:41;;;;;;;;;;;17.70;99.90;;;;;;5095879;28;19919;-69
2022/07/30 05:11:10;;;;;;;;;;;17.70;99.90;;;;;;5100199;28;20806;-70
2022/07/30 05:13:35;;;;;;;;;;;17.70;99.90;;;;;;5098952;28;19935;-69
2022/07/30 05:16:01;;;;;;;;;;;17.70;99.90;;;;;;5098288;28;19911;-69
2022/07/30 05:18:27;;;;;;;;;;;17.80;99.90;;;;;;5095172;28;20278;-69
2022/07/30 05:20:53;;;;;;;;;;;17.80;99.90;;;;;;5098052;28;19925;-68
2022/07/30 05:23:18;;;;;;;;;;;17.90;99.90;;;;;;5095000;28;20411;-69
2022/07/30 05:25:44;;;;;;;;;;;17.80;99.90;;;;;;5095058;28;20385;-68
2022/07/30 05:28:09;;;;;;;;;;;17.90;99.90;;;;;;5098150;28;20405;-69
2022/07/30 05:30:36;;;;;;;;;;;17.90;99.90;;;;;;5099886;28;20382;-69
2022/07/30 05:33:01;;;;;;;;;;;17.80;99.90;;;;;;5094285;28;20481;-68
2022/07/30 05:35:27;;;;;;;;;;;18.00;99.90;;;;;;5097469;28;20002;-69
2022/07/30 05:37:52;;;;;;;;;;;18.10;99.90;;;;;;5098193;28;20292;-69
2022/07/30 05:40:18;;;;;;;;;;;18.10;99.90;;;;;;5100519;28;20401;-68
2022/07/30 05:42:43;;;;;;;;;;;18.00;99.90;;;;;;5098572;28;20012;-69
2022/07/30 05:45:09;;;;;;;;;;;17.90;99.90;;;;;;5095695;28;19923;-68
2022/07/30 05:47:35;;;;;;;;;;;18.00;99.90;;;;;;5096693;28;19918;-69
2022/07/30 05:50:00;;;;;;;;;;;18.10;99.90;;;;;;5097417;28;19981;-69
2022/07/30 05:52:26;;;;;;;;;;;18.20;99.90;;;;;;5096803;28;19919;-69
2022/07/30 05:54:52;;;;;;;;;;;18.30;99.90;;;;;;5100757;28;19912;-69
2022/07/30 05:57:17;;;;;;;;;;;18.40;99.90;;;;;;5095419;28;19926;-69
2022/07/30 05:59:43;;;;;;;;;;;18.40;99.90;;;;;;5075905;28;19916;-69
2022/07/30 06:02:08;;;;;;;;;;;18.20;99.90;;;;;;5097574;28;19918;-69
2022/07/30 06:04:34;;;;;;;;;;;18.10;99.90;;;;;;5095900;28;19934;-69
2022/07/30 06:06:59;;;;;;;;;;;18.10;99.90;;;;;;5095967;28;19912;-69
2022/07/30 06:09:25;;;;;;;;;;;18.30;99.90;;;;;;5101943;28;19943;-69
2022/07/30 06:11:51;;;;;;;;;;;18.60;99.90;;;;;;5091015;28;19919;-69
2022/07/30 06:14:17;;;;;;;;;;;18.50;99.90;;;;;;5078016;28;19912;-69
2022/07/30 06:16:42;;;;;;;;;;;18.60;99.90;;;;;;5092338;28;19935;-69
2022/07/30 06:19:08;;;;;;;;;;;18.60;99.90;;;;;;5095856;28;20204;-69
2022/07/30 06:21:33;;;;;;;;;;;18.40;99.90;;;;;;5099236;28;20285;-69
2022/07/30 06:23:59;;;;;;;;;;;18.50;99.90;;;;;;5097382;28;19969;-68
2022/07/30 06:26:24;;;;;;;;;;;18.50;99.90;;;;;;5091249;28;20006;-68
2022/07/30 06:28:50;;;;;;;;;;;18.70;99.90;;;;;;5093738;28;20011;-69
2022/07/30 06:31:15;;;;;;;;;;;18.80;99.90;;;;;;5098633;28;19915;-69
2022/07/30 06:33:42;;;;;;;;;;;18.80;99.90;;;;;;5079324;28;19969;-68
2022/07/30 06:36:07;;;;;;;;;;;18.90;99.90;;;;;;5092082;28;20004;-68
2022/07/30 06:38:33;;;;;;;;;;;18.90;99.90;;;;;;5096531;28;19915;-69
2022/07/30 06:40:58;;;;;;;;;;;18.80;99.90;;;;;;5097990;28;19911;-69
2022/07/30 06:43:24;;;;;;;;;;;18.80;99.90;;;;;;5092343;28;19912;-69
2022/07/30 06:45:50;;;;;;;;;;;18.90;99.90;;;;;;5074478;28;19912;-69
2022/07/30 06:48:15;;;;;;;;;;;18.80;99.90;;;;;;5095455;28;19912;-69
2022/07/30 06:50:41;;;;;;;;;;;18.80;99.90;;;;;;5092362;28;20303;-68
2022/07/30 06:53:07;;;;;;;;;;;18.70;99.90;;;;;;5095104;28;19916;-69
2022/07/30 06:55:32;;;;;;;;;;;18.70;99.90;;;;;;5089345;28;20001;-68
2022/07/30 06:57:58;;;;;;;;;;;18.80;99.90;;;;;;5093315;28;20080;-69
2022/07/30 07:00:24;;;;;;;;;;;18.90;99.90;;;;;;5096585;28;20243;-69
2022/07/30 07:02:50;;;;;;;;;;;18.80;99.90;;;;;;5091132;28;19920;-69
2022/07/30 07:05:16;;;;;;;;;;;18.80;99.90;;;;;;5081875;28;19922;-68
2022/07/30 07:07:42;;;;;;;;;;;18.70;99.90;;;;;;5097934;28;19919;-70
2022/07/30 07:10:08;;;;;;;;;;;18.60;99.90;;;;;;5099829;28;19947;-69
2022/07/30 07:12:34;;;;;;;;;;;18.70;99.90;;;;;;5086914;28;20383;-69
2022/07/30 07:14:59;;;;;;;;;;;18.80;99.90;;;;;;5101306;28;19909;-69
2022/07/30 07:17:25;;;;;;;;;;;19.00;99.90;;;;;;5097964;28;20009;-68
2022/07/30 07:19:50;;;;;;;;;;;19.20;99.90;;;;;;5100841;28;20366;-70
2022/07/30 07:22:16;;;;;;;;;;;19.40;99.90;;;;;;5103122;28;20259;-68
2022/07/30 07:24:42;;;;;;;;;;;19.50;99.90;;;;;;5103706;28;19912;-70
2022/07/30 07:27:08;;;;;;;;;;;19.70;99.90;;;;;;5099635;28;19993;-69
2022/07/30 07:29:33;;;;;;;;;;;19.60;99.90;;;;;;5081521;28;20385;-68
2022/07/30 07:31:59;;;;;;;;;;;19.50;99.90;;;;;;5095519;28;19912;-69
2022/07/30 07:34:24;;;;;;;;;;;19.50;99.90;;;;;;5081732;28;19920;-69
2022/07/30 07:36:50;;;;;;;;;;;19.60;99.90;;;;;;5100440;28;19919;-69
2022/07/30 07:39:15;;;;;;;;;;;19.70;99.90;;;;;;5093950;28;19920;-69
2022/07/30 07:41:41;;;;;;;;;;;19.80;99.90;;;;;;5078830;28;20002;-69
2022/07/30 07:44:07;;;;;;;;;;;19.90;99.90;;;;;;5098554;28;19916;-69
2022/07/30 07:46:32;;;;;;;;;;;19.80;99.90;;;;;;5094958;28;19924;-68
2022/07/30 07:48:58;;;;;;;;;;;19.60;99.90;;;;;;5099842;28;19919;-69
2022/07/30 07:51:24;;;;;;;;;;;19.50;99.90;;;;;;5090778;28;19916;-69
2022/07/30 07:53:49;;;;;;;;;;;19.40;99.90;;;;;;5098524;28;21616;-69
2022/07/30 07:56:15;;;;;;;;;;;19.30;99.90;;;;;;5094709;28;19912;-68
2022/07/30 07:58:40;;;;;;;;;;;19.20;99.90;;;;;;5097121;28;19912;-69
2022/07/30 08:01:06;;;;;;;;;;;19.20;99.90;;;;;;5091408;28;21101;-69
2022/07/30 08:03:32;;;;;;;;;;;19.00;99.90;;;;;;5102575;28;19912;-69
2022/07/30 08:05:57;;;;;;;;;;;19.20;99.90;;;;;;5096462;28;19912;-69
2022/07/30 08:08:23;;;;;;;;;;;19.40;99.90;;;;;;5093788;28;20286;-69
2022/07/30 08:10:49;;;;;;;;;;;19.50;99.90;;;;;;5095163;28;19920;-69
2022/07/30 08:13:15;;;;;;;;;;;19.50;99.90;;;;;;5095862;28;20013;-68
2022/07/30 08:15:41;;;;;;;;;;;19.50;99.90;;;;;;5095479;28;19912;-69
2022/07/30 08:18:10;;;;;;;;;;;19.50;99.90;;;;;;5097939;28;20014;-69
2022/07/30 08:20:36;;;;;;;;;;;19.80;99.90;;;;;;5096538;28;19920;-69
2022/07/30 08:23:03;;;;;;;;;;;20.20;99.90;;;;;;5072771;28;20295;-68
2022/07/30 08:25:28;;;;;;;;;;;20.20;99.90;;;;;;5075181;28;20366;-68
2022/07/30 08:27:54;;;;;;;;;;;20.40;99.90;;;;;;5105281;28;19957;-69
2022/07/30 08:30:19;;;;;;;;;;;20.60;99.90;;;;;;5104520;28;19926;-69
2022/07/30 08:33:04;;;;;;;;;;;21.00;99.90;;;;;;5066883;28;19912;-71
2022/07/30 08:35:30;;;;;;;;;;;21.20;99.90;;;;;;5096133;28;19919;-69
2022/07/30 08:37:55;;;;;;;;;;;21.50;99.90;;;;;;5075402;28;19912;-67
2022/07/30 08:40:24;;;;;;;;;;;21.80;99.90;;;;;;5096312;28;19918;-67
2022/07/30 08:42:50;;;;;;;;;;;22.00;99.90;;;;;;5097653;28;19912;-68
2022/07/30 08:45:16;;;;;;;;;;;22.20;99.90;;;;;;5094122;28;19911;-68
2022/07/30 08:47:43;;;;;;;;;;;22.20;99.90;;;;;;5086585;28;19923;-69
2022/07/30 08:50:10;;;;;;;;;;;22.10;99.90;;;;;;5095435;28;19931;-69
2022/07/30 08:52:36;;;;;;;;;;;22.10;99.90;;;;;;5070099;28;19924;-70
2022/07/30 08:55:04;;;;;;;;;;;22.10;99.90;;;;;;5095725;28;20913;-69
2022/07/30 08:57:30;;;;;;;;;;;22.10;99.90;;;;;;5097813;28;19920;-69
2022/07/30 08:59:56;;;;;;;;;;;22.30;99.90;;;;;;5089890;28;19920;-70
2022/07/30 09:02:22;;;;;;;;;;;22.00;99.90;;;;;;5091178;28;19920;-70
2022/07/30 09:04:48;;;;;;;;;;;22.00;99.90;;;;;;5076688;28;19977;-68
2022/07/30 09:07:13;;;;;;;;;;;22.20;99.90;;;;;;5102059;28;19912;-67
2022/07/30 09:09:39;;;;;;;;;;;22.30;99.90;;;;;;5097776;28;20014;-67
2022/07/30 09:12:25;;;;;;;;;;;22.40;99.90;;;;;;5093122;28;20002;-68
2022/07/30 09:15:00;;;;;;;;;;;22.60;99.90;;;;;;5085550;28;19922;-67
2022/07/30 09:17:26;;;;;;;;;;;22.70;99.90;;;;;;5096159;28;19999;-68
2022/07/30 09:20:02;;;;;;;;;;;22.60;99.90;;;;;;5095377;28;19972;-70
2022/07/30 09:22:40;;;;;;;;;;;22.80;99.90;;;;;;5092175;28;19916;-69
2022/07/30 09:25:06;;;;;;;;;;;22.70;99.90;;;;;;5099549;28;19962;-69
2022/07/30 09:27:45;;;;;;;;;;;22.70;99.90;;;;;;5097600;28;20313;-67
2022/07/30 09:30:11;;;;;;;;;;;22.60;99.90;;;;;;5094972;28;19991;-69
2022/07/30 09:32:56;;;;;;;;;;;22.70;99.90;;;;;;5092127;28;19966;-68
2022/07/30 09:35:22;;;;;;;;;;;22.80;99.90;;;;;;5088300;28;19975;-70
2022/07/30 09:37:56;;;;;;;;;;;23.10;99.90;;;;;;5073778;28;19965;-70
2022/07/30 09:40:22;;;;;;;;;;;23.30;99.90;;;;;;5091766;28;19919;-70
2022/07/30 09:42:59;;;;;;;;;;;23.30;99.90;;;;;;5098439;28;19912;-71
2022/07/30 09:45:25;;;;;;;;;;;23.10;99.90;;;;;;5103982;28;20681;-70
2022/07/30 09:47:51;;;;;;;;;;;23.00;99.90;;;;;;5095087;28;20015;-70
2022/07/30 09:50:18;;;;;;;;;;;23.00;99.90;;;;;;5076314;28;20007;-70
2022/07/30 09:52:46;;;;;;;;;;;23.10;99.90;;;;;;5071075;28;20013;-70
2022/07/30 09:55:12;;;;;;;;;;;23.20;99.90;;;;;;5099015;28;19924;-71
2022/07/30 09:57:53;;;;;;;;;;;23.30;99.90;;;;;;5096265;28;19935;-71
2022/07/30 10:00:20;;;;;;;;;;;22.90;99.90;;;;;;5095693;28;19916;-71
2022/07/30 10:02:46;;;;;;;;;;;22.40;99.90;;;;;;5095652;28;19920;-72
2022/07/30 10:05:13;;;;;;;;;;;22.40;99.90;;;;;;5096284;28;19912;-70
2022/07/30 10:07:45;;;;;;;;;;;22.30;99.90;;;;;;5070472;28;19916;-70
2022/07/30 10:10:11;;;;;;;;;;;22.30;99.90;;;;;;5073871;28;19970;-71
2022/07/30 10:12:38;;;;;;;;;;;22.50;99.90;;;;;;5080324;28;19955;-71
2022/07/30 10:15:04;;;;;;;;;;;22.60;99.90;;;;;;5093902;28;19916;-70
2022/07/30 10:17:30;;;;;;;;;;;22.80;99.90;;;;;;5100760;28;19912;-71
2022/07/30 10:19:56;;;;;;;;;;;22.90;99.90;;;;;;5093803;28;19919;-70
2022/07/30 10:22:21;;;;;;;;;;;23.10;99.90;;;;;;5095240;28;19973;-70
2022/07/30 10:24:49;;;;;;;;;;;23.00;99.90;;;;;;5076912;28;20315;-70
2022/07/30 10:27:14;;;;;;;;;;;23.00;99.90;;;;;;5103086;28;19913;-71
2022/07/30 10:29:41;;;;;;;;;;;23.10;99.90;;;;;;5088444;28;19973;-70
2022/07/30 10:32:06;;;;;;;;;;;23.20;99.90;;;;;;5093925;28;19943;-71
2022/07/30 10:34:32;;;;;;;;;;;23.20;99.90;;;;;;5098233;28;19947;-71
2022/07/30 10:37:03;;;;;;;;;;;23.10;99.90;;;;;;5079310;28;19912;-70
2022/07/30 10:39:32;;;;;;;;;;;23.00;99.90;;;;;;5076959;28;19915;-70
2022/07/30 10:42:17;;;;;;;;;;;22.90;99.90;;;;;;5099162;28;19958;-70
2022/07/30 10:45:04;;;;;;;;;;;23.10;99.90;;;;;;5101651;28;19927;-71
2022/07/30 10:47:31;;;;;;;;;;;23.40;99.90;;;;;;5080592;28;19920;-71
2022/07/30 10:50:08;;;;;;;;;;;23.60;99.90;;;;;;5098398;28;19932;-71
2022/07/30 10:52:42;;;;;;;;;;;23.60;99.90;;;;;;5094532;28;20106;-68
2022/07/30 10:55:14;;;;;;;;;;;23.60;99.90;;;;;;5099804;28;19980;-71
2022/07/30 10:58:06;;;;;;;;;;;23.50;99.90;;;;;;5104537;28;20314;-72
2022/07/30 11:00:52;;;;;;;;;;;23.40;99.90;;;;;;5076431;28;19912;-69
2022/07/30 11:03:22;;;;;;;;;;;23.40;99.90;;;;;;5082914;28;19961;-70
2022/07/30 11:05:48;;;;;;;;;;;23.40;99.90;;;;;;5098583;28;20709;-70
2022/07/30 11:08:48;;;;;;;;;;;23.40;99.90;;;;;;5079140;28;20321;-70
2022/07/30 11:11:19;;;;;;;;;;;23.30;99.90;;;;;;5060204;28;19927;-69
2022/07/30 11:13:52;;;;;;;;;;;23.10;99.90;;;;;;5095572;28;19919;-68
2022/07/30 11:16:22;;;;;;;;;;;22.80;99.90;;;;;;5094431;28;19922;-69
2022/07/30 11:19:00;;;;;;;;;;;22.50;99.90;;;;;;5083946;28;19973;-68
2022/07/30 11:21:26;;;;;;;;;;;22.40;99.90;;;;;;5073604;28;19920;-68
2022/07/30 11:23:52;;;;;;;;;;;22.50;99.90;;;;;;5091018;28;19993;-69
2022/07/30 11:26:36;;;;;;;;;;;22.50;99.90;;;;;;5090349;28;19913;-69
2022/07/30 11:29:02;;;;;;;;;;;22.50;99.90;;;;;;5094717;28;20558;-69
2022/07/30 11:31:34;;;;;;;;;;;22.50;99.90;;;;;;5098366;28;19916;-68
2022/07/30 11:34:17;;;;;;;;;;;22.60;99.90;;;;;;5094441;28;20390;-67
2022/07/30 11:37:01;;;;;;;;;;;22.80;99.90;;;;;;5079451;28;19916;-68
2022/07/30 11:39:47;;;;;;;;;;;22.60;99.90;;;;;;5083905;28;20352;-68
2022/07/30 11:42:23;;;;;;;;;;;22.60;99.90;;;;;;5083661;28;20033;-69
2022/07/30 11:44:49;;;;;;;;;;;22.40;99.90;;;;;;5075517;28;19946;-70
2022/07/30 11:47:14;;;;;;;;;;;22.40;99.90;;;;;;5090299;28;19912;-69
2022/07/30 11:49:44;;;;;;;;;;;22.40;99.90;;;;;;5094220;28;19920;-70
2022/07/30 11:52:10;;;;;;;;;;;22.50;99.90;;;;;;5075448;28;19987;-69
2022/07/30 11:54:54;;;;;;;;;;;22.50;99.90;;;;;;5086633;28;20014;-70
2022/07/30 11:57:20;;;;;;;;;;;22.60;99.90;;;;;;5097855;28;20314;-70
2022/07/30 11:59:52;;;;;;;;;;;22.60;99.90;;;;;;5098232;28;19927;-69
2022/07/30 12:02:18;;;;;;;;;;;22.60;99.90;;;;;;5098928;28;19919;-69
2022/07/30 12:04:44;;;;;;;;;;;22.80;99.90;;;;;;5094023;28;19927;-69
2022/07/30 12:07:10;;;;;;;;;;;22.90;99.90;;;;;;5100301;28;19919;-69
2022/07/30 12:09:35;;;;;;;;;;;22.80;99.90;;;;;;5099621;28;19954;-68
2022/07/30 12:12:02;;;;;;;;;;;22.50;99.90;;;;;;5094926;28;19919;-68
2022/07/30 12:14:35;;;;;;;;;;;22.50;99.90;;;;;;5081815;28;20005;-68
2022/07/30 12:17:01;;;;;;;;;;;22.60;99.90;;;;;;5097131;28;19912;-70
2022/07/30 12:19:26;;;;;;;;;;;22.40;99.90;;;;;;5093546;28;20302;-70
2022/07/30 12:21:57;;;;;;;;;;;22.40;99.90;;;;;;5098149;28;19920;-71
2022/07/30 12:24:25;;;;;;;;;;;22.20;99.90;;;;;;5096694;28;19978;-71
2022/07/30 12:26:51;;;;;;;;;;;21.90;99.90;;;;;;5099399;28;19954;-69
2022/07/30 12:29:17;;;;;;;;;;;21.70;99.90;;;;;;5074853;28;19971;-70
2022/07/30 12:31:44;;;;;;;;;;;21.90;99.90;;;;;;5094990;28;19919;-70
2022/07/30 12:34:17;;;;;;;;;;;22.20;99.90;;;;;;5093034;28;20007;-70
2022/07/30 12:36:43;;;;;;;;;;;22.40;99.90;;;;;;5096509;28;19972;-69
2022/07/30 12:39:17;;;;;;;;;;;22.70;99.90;;;;;;5080422;28;19919;-70
2022/07/30 12:41:43;;;;;;;;;;;23.00;99.90;;;;;;5094676;28;20381;-70
2022/07/30 12:44:09;;;;;;;;;;;23.40;99.90;;;;;;5103007;28;19928;-70
2022/07/30 12:46:40;;;;;;;;;;;23.50;99.90;;;;;;5093008;28;19912;-70
2022/07/30 12:49:06;;;;;;;;;;;23.60;99.90;;;;;;5100922;28;20020;-71
2022/07/30 12:51:33;;;;;;;;;;;23.60;99.90;;;;;;5095871;28;20678;-71
2022/07/30 12:54:00;;;;;;;;;;;23.60;99.90;;;;;;5098609;28;19916;-71
2022/07/30 12:56:27;;;;;;;;;;;23.40;99.90;;;;;;5099448;28;19916;-70
2022/07/30 12:58:54;;;;;;;;;;;23.40;99.90;;;;;;5081660;28;20358;-69
2022/07/30 13:01:40;;;;;;;;;;;23.70;99.90;;;;;;5083720;28;20396;-70
2022/07/30 13:04:06;;;;;;;;;;;24.10;99.90;;;;;;5100471;28;19933;-71
2022/07/30 13:06:31;;;;;;;;;;;24.40;99.90;;;;;;5094037;28;19986;-71
2022/07/30 13:08:58;;;;;;;;;;;24.10;99.90;;;;;;5088198;28;19919;-68
2022/07/30 13:11:42;;;;;;;;;;;24.20;99.90;;;;;;5075997;28;19960;-70
2022/07/30 13:14:09;;;;;;;;;;;24.40;99.90;;;;;;5100427;28;19911;-70
2022/07/30 13:16:35;;;;;;;;;;;24.40;99.90;;;;;;5093463;28;20012;-69
2022/07/30 13:19:04;;;;;;;;;;;24.20;99.90;;;;;;5098861;28;19948;-69
2022/07/30 13:21:30;;;;;;;;;;;24.10;99.90;;;;;;5094179;28;19912;-70
2022/07/30 13:23:55;;;;;;;;;;;24.00;99.90;;;;;;5092134;28;19916;-69
2022/07/30 13:26:24;;;;;;;;;;;24.10;99.90;;;;;;5090627;28;19912;-70
2022/07/30 13:28:50;;;;;;;;;;;24.40;99.90;;;;;;5086395;28;20621;-69
2022/07/30 13:31:17;;;;;;;;;;;24.40;99.90;;;;;;5072447;28;20019;-70
2022/07/30 13:33:42;;;;;;;;;;;24.50;99.90;;;;;;5078654;28;19958;-69
2022/07/30 13:36:09;;;;;;;;;;;24.50;99.90;;;;;;5071146;28;19916;-69
2022/07/30 13:38:35;;;;;;;;;;;24.30;99.90;;;;;;5074332;28;19983;-69
2022/07/30 13:41:00;;;;;;;;;;;24.00;99.90;;;;;;5078640;28;20002;-69
2022/07/30 13:43:26;;;;;;;;;;;23.80;99.90;;;;;;5076339;28;19920;-68
2022/07/30 13:45:52;;;;;;;;;;;23.60;99.90;;;;;;5065292;28;20036;-69
2022/07/30 13:48:18;;;;;;;;;;;23.50;99.90;;;;;;5068283;28;19919;-68
2022/07/30 13:50:44;;;;;;;;;;;23.60;99.90;;;;;;5075800;28;20046;-69
2022/07/30 13:53:10;;;;;;;;;;;23.80;99.90;;;;;;5059891;28;19920;-70
2022/07/30 13:55:36;;;;;;;;;;;24.30;99.90;;;;;;5068360;28;19943;-69
2022/07/30 13:58:03;;;;;;;;;;;24.30;99.90;;;;;;5066964;28;19912;-70
2022/07/30 14:00:31;;;;;;;;;;;24.50;99.90;;;;;;5064317;28;20003;-70
2022/07/30 14:03:00;;;;;;;;;;;24.50;99.90;;;;;;5058864;28;19913;-70
2022/07/30 14:05:26;;;;;;;;;;;24.50;99.90;;;;;;5071257;28;19939;-69
2022/07/30 14:07:52;;;;;;;;;;;24.00;99.90;;;;;;5067489;28;19934;-68
2022/07/30 14:10:20;;;;;;;;;;;24.30;99.90;;;;;;5045372;28;20376;-71
2022/07/30 14:12:46;;;;;;;;;;;24.40;99.90;;;;;;5069408;28;19912;-70
2022/07/30 14:15:12;;;;;;;;;;;24.40;99.90;;;;;;5074372;28;19919;-70
2022/07/30 14:17:38;;;;;;;;;;;24.30;99.90;;;;;;5072344;28;20412;-69
2022/07/30 14:20:03;;;;;;;;;;;24.40;99.90;;;;;;5070056;28;20387;-71
2022/07/30 14:22:29;;;;;;;;;;;24.40;99.90;;;;;;5058045;28;19928;-70